Date,TemperatureHighF,TemperatureAvgF,TemperatureLowF,DewpointHighF,DewpointAvgF,DewpointLowF,HumidityHigh,HumidityAvg,HumidityLow,PressureMaxIn,PressureMinIn,WindSpeedMaxMPH,WindSpeedAvgMPH,GustSpeedMaxMPH,PrecipitationSumIn
2013-5-1,41,37,32,30,26,23,91,64,49,29.54,29.46,11,-438,15,0.00
2013-5-2,43,36,31,37,31,30,96,84,65,29.83,29.55,29,-545,43,0.07
2013-5-3,46,41,36,35,33,31,85,74,60,29.84,29.73,44,-425,49,0.00
2013-5-4,38,33,31,34,32,30,98,95,84,29.77,29.60,0,-595,0,0.49
2013-5-5,38,32,28,33,29,27,97,90,74,30.05,29.77,0,-448,2,0.40
2013-5-6,43,33,26,32,27,23,96,79,48,30.16,30.02,4,-416,12,0.00
2013-5-7,43,36,27,33,28,24,96,75,50,30.21,30.14,7,-364,14,0.01
2013-5-8,49,39,27,28,22,18,80,54,34,30.23,30.17,8,-336,10,0.00
2013-5-9,53,40,27,33,25,17,78,57,33,30.27,30.18,11,-343,18,0.00
2013-5-10,58,45,30,37,30,26,90,61,32,30.18,29.87,0,-400,0,0.00
2013-5-11,52,44,38,42,39,34,98,81,59,29.89,29.48,0,-436,5,0.05
2013-5-12,46,41,37,43,39,34,97,92,76,29.48,29.35,7,-426,9,0.12
2013-5-13,40,35,29,39,34,28,98,97,95,29.39,29.30,0,-541,5,0.18
2013-5-14,32,30,28,32,29,27,98,96,92,29.55,29.40,0,-988,0,0.24
2013-5-15,41,35,27,35,28,23,98,80,51,29.72,29.55,25,-421,33,0.28
2013-5-16,47,39,34,30,28,26,78,65,47,29.72,29.42,35,-369,41,0.00
2013-5-17,49,40,32,43,34,30,98,82,57,29.42,29.26,25,-438,33,0.18
2013-5-18,40,34,27,35,32,25,97,92,76,30.01,29.30,0,-709,0,0.34
2013-5-19,39,30,20,27,21,15,91,71,42,30.54,30.01,7,-515,10,0.00
2013-5-20,49,36,19,25,17,12,76,50,27,30.61,30.43,4,-312,8,0.00
2013-5-21,55,42,25,23,18,14,67,40,23,30.44,30.13,8,-294,9,0.00
2013-5-22,60,45,28,26,22,16,73,43,24,30.13,29.93,7,-325,18,0.00
2013-5-23,60,47,34,34,28,20,70,49,32,30.02,29.94,12,-332,17,0.00
2013-5-24,67,51,33,34,27,-100,79,46,21,29.98,29.85,4,-252,7,0.02
2013-5-25,70,54,34,35,30,27,81,44,21,29.91,29.78,14,3,21,0.00
2013-5-26,68,53,36,40,34,28,76,50,31,29.81,29.75,9,2,14,0.00
2013-5-27,74,58,38,41,35,28,83,47,19,29.83,29.66,6,2,11,0.00
2013-5-28,79,61,39,38,33,30,71,39,20,29.67,29.52,10,3,17,0.00
2013-5-29,78,61,40,38,35,31,75,41,19,29.62,29.53,9,2,12,0.00
2013-5-30,78,63,44,44,38,35,73,43,22,29.80,29.63,10,2,13,0.00
2013-5-31,77,61,43,44,39,30,83,50,18,29.90,29.79,10,3,15,0.00